createdAt,value
2018-11-03T00:00:34.988Z,20.43
2018-11-03T00:01:34.952Z,20.39
2018-11-03T00:02:34.943Z,20.42
2018-11-03T00:03:34.917Z,20.38
2018-11-03T00:04:34.893Z,20.41
2018-11-03T00:05:34.865Z,20.49
2018-11-03T00:06:34.849Z,20.41
2018-11-03T00:07:34.829Z,20.38
2018-11-03T00:08:34.814Z,20.42
2018-11-03T00:09:34.784Z,20.50
2018-11-03T00:10:34.767Z,20.49
2018-11-03T00:11:34.739Z,20.46
2018-11-03T00:12:34.716Z,20.50
2018-11-03T00:13:34.703Z,20.47
2018-11-03T00:14:34.676Z,20.43
2018-11-03T00:15:34.653Z,20.39
2018-11-03T00:16:34.644Z,20.41
2018-11-03T00:17:34.614Z,20.34
2018-11-03T00:18:34.586Z,20.34
2018-11-03T00:19:34.573Z,20.33
2018-11-03T00:20:34.552Z,20.31
2018-11-03T00:21:34.531Z,20.25
2018-11-03T00:22:34.509Z,20.33
2018-11-03T00:23:34.482Z,20.38
2018-11-03T00:24:34.481Z,20.35
2018-11-03T00:25:34.457Z,20.39
2018-11-03T00:26:34.429Z,20.34
2018-11-03T00:27:34.420Z,20.42
2018-11-03T00:28:34.381Z,20.41
2018-11-03T00:29:34.375Z,20.41
2018-11-03T00:30:34.340Z,20.41
2018-11-03T00:31:34.331Z,20.41
2018-11-03T00:32:34.307Z,20.47
2018-11-03T00:33:34.282Z,20.41
2018-11-03T00:34:34.259Z,20.38
2018-11-03T00:35:34.263Z,20.49
2018-11-03T00:36:34.225Z,20.51
2018-11-03T00:37:34.202Z,20.53
2018-11-03T00:38:34.177Z,20.56
2018-11-03T00:39:34.166Z,20.53
2018-11-03T00:40:34.461Z,20.58
2018-11-03T00:41:34.116Z,20.54
2018-11-03T00:42:34.108Z,20.53
2018-11-03T00:43:34.067Z,20.56
2018-11-03T00:44:34.076Z,20.50
2018-11-03T00:45:34.045Z,20.50
2018-11-03T00:46:34.024Z,20.54
2018-11-03T00:47:34.007Z,20.49
2018-11-03T00:48:34.020Z,20.43
2018-11-03T00:49:33.951Z,20.41
2018-11-03T00:50:33.913Z,20.47
2018-11-03T00:51:33.897Z,20.49
2018-11-03T00:52:33.873Z,20.56
2018-11-03T00:53:33.872Z,20.53
2018-11-03T00:54:33.860Z,20.64
2018-11-03T00:55:33.847Z,20.66
2018-11-03T00:56:33.806Z,20.65
2018-11-03T00:57:33.779Z,20.66
2018-11-03T00:58:33.762Z,20.71
2018-11-03T00:59:33.743Z,20.68
2018-11-03T01:00:33.713Z,20.69
2018-11-03T01:01:33.718Z,20.61
2018-11-03T01:02:33.691Z,20.51
2018-11-03T01:03:33.653Z,20.53
2018-11-03T01:04:33.642Z,20.61
2018-11-03T01:05:33.623Z,20.64
2018-11-03T01:06:33.588Z,20.51
2018-11-03T01:08:06.794Z,20.64
2018-11-03T01:08:33.545Z,20.72
2018-11-03T01:09:33.544Z,20.74
2018-11-03T01:10:33.500Z,20.65
2018-11-03T01:11:33.483Z,20.50
2018-11-03T01:12:33.460Z,20.56
2018-11-03T01:13:33.445Z,20.58
2018-11-03T01:14:33.419Z,20.56
2018-11-03T01:15:33.393Z,20.51
2018-11-03T01:16:33.381Z,20.51
2018-11-03T01:17:33.363Z,20.59
2018-11-03T01:18:33.428Z,20.64
2018-11-03T01:19:33.325Z,20.69
2018-11-03T01:20:33.292Z,20.72
2018-11-03T01:21:33.289Z,20.68
2018-11-03T01:22:33.248Z,20.68
2018-11-03T01:23:33.308Z,20.62
2018-11-03T01:24:33.220Z,20.61
2018-11-03T01:25:33.189Z,20.62
2018-11-03T01:26:33.170Z,20.56
2018-11-03T01:27:33.159Z,20.72
2018-11-03T01:28:33.127Z,20.69
2018-11-03T01:29:33.112Z,20.66
2018-11-03T01:30:33.080Z,20.66
2018-11-03T01:31:33.071Z,20.65
2018-11-03T01:32:33.133Z,20.64
2018-11-03T01:33:33.035Z,20.51
2018-11-03T01:34:33.017Z,20.68
2018-11-03T01:35:32.992Z,20.66
2018-11-03T01:36:32.972Z,20.62
2018-11-03T01:37:32.934Z,20.56
2018-11-03T01:38:32.927Z,20.54
2018-11-03T01:39:32.901Z,20.61
2018-11-03T01:40:32.880Z,20.51
2018-11-03T01:41:32.860Z,20.50
2018-11-03T01:42:32.833Z,20.54
2018-11-03T01:43:32.808Z,20.66
2018-11-03T01:44:32.796Z,20.66
2018-11-03T01:45:32.775Z,20.71
2018-11-03T01:46:32.749Z,20.66
2018-11-03T01:47:32.730Z,20.71
2018-11-03T01:48:32.720Z,20.64
2018-11-03T01:49:32.696Z,20.64
2018-11-03T01:50:32.674Z,20.64
2018-11-03T01:51:32.651Z,20.64
2018-11-03T01:52:32.632Z,20.64
2018-11-03T01:53:32.630Z,20.61
2018-11-03T01:54:32.578Z,20.65
2018-11-03T01:55:32.566Z,20.64
2018-11-03T01:56:32.554Z,20.58
2018-11-03T01:57:32.530Z,20.66
2018-11-03T01:58:32.507Z,20.65
2018-11-03T01:59:32.478Z,20.61
2018-11-03T02:00:32.466Z,20.64
2018-11-03T02:01:32.462Z,20.64
2018-11-03T02:02:32.417Z,20.51
2018-11-03T02:03:32.405Z,20.51
2018-11-03T02:04:32.427Z,20.51
2018-11-03T02:05:32.391Z,20.54
2018-11-03T02:06:32.412Z,20.54
2018-11-03T02:07:32.364Z,20.50
2018-11-03T02:08:32.307Z,20.56
2018-11-03T02:09:32.285Z,20.64
2018-11-03T02:10:32.252Z,20.66
2018-11-03T02:11:32.232Z,20.65
2018-11-03T02:12:32.234Z,20.71
2018-11-03T02:13:32.200Z,20.68
2018-11-03T02:14:32.171Z,20.66
2018-11-03T02:15:32.163Z,20.74
2018-11-03T02:16:32.135Z,20.69
2018-11-03T02:17:32.116Z,20.68
2018-11-03T02:18:32.090Z,20.74
2018-11-03T02:19:32.066Z,20.68
2018-11-03T02:20:32.104Z,20.65
2018-11-03T02:21:32.024Z,20.53
2018-11-03T02:22:32.008Z,20.62
2018-11-03T02:23:31.982Z,20.51
2018-11-03T02:24:31.984Z,20.53
2018-11-03T02:25:31.947Z,20.51
2018-11-03T02:26:31.964Z,20.59
2018-11-03T02:27:31.901Z,20.51
2018-11-03T02:28:31.882Z,20.64
2018-11-03T02:29:31.864Z,20.74
2018-11-03T02:30:31.825Z,20.66
2018-11-03T02:31:31.811Z,20.72
2018-11-03T02:32:31.787Z,20.65
2018-11-03T02:33:31.767Z,20.81
2018-11-03T02:34:31.767Z,20.69
2018-11-03T02:35:31.751Z,20.79
2018-11-03T02:36:31.707Z,20.72
2018-11-03T02:37:31.696Z,20.72
2018-11-03T02:38:31.685Z,20.69
2018-11-03T02:39:31.658Z,20.74
2018-11-03T02:40:31.643Z,20.69
2018-11-03T02:41:31.620Z,20.68
2018-11-03T02:42:31.602Z,20.72
2018-11-03T02:44:04.785Z,20.65
2018-11-03T02:44:31.569Z,20.74
2018-11-03T02:45:31.562Z,20.83
2018-11-03T02:46:31.495Z,20.68
2018-11-03T02:47:31.488Z,20.77
2018-11-03T02:48:31.456Z,20.79
2018-11-03T02:49:31.443Z,20.76
2018-11-03T02:50:31.422Z,20.80
2018-11-03T02:51:31.402Z,20.65
2018-11-03T02:52:31.368Z,20.72
2018-11-03T02:53:31.361Z,20.68
2018-11-03T02:54:31.343Z,20.59
2018-11-03T02:55:31.316Z,20.64
2018-11-03T02:56:31.307Z,20.65
2018-11-03T02:57:31.273Z,20.62
2018-11-03T02:58:31.250Z,20.59
2018-11-03T02:59:31.226Z,20.64
2018-11-03T03:00:31.222Z,20.62
2018-11-03T03:01:31.186Z,20.56
2018-11-03T03:02:31.175Z,20.51
2018-11-03T03:03:31.151Z,20.56
2018-11-03T03:04:31.126Z,20.54
2018-11-03T03:05:31.098Z,20.53
2018-11-03T03:06:31.083Z,20.65
2018-11-03T03:07:31.069Z,20.68
2018-11-03T03:08:31.043Z,20.66
2018-11-03T03:09:31.030Z,20.66
2018-11-03T03:10:31.015Z,20.69
2018-11-03T03:11:31.023Z,20.61
2018-11-03T03:12:30.961Z,20.68
2018-11-03T03:13:30.939Z,20.62
2018-11-03T03:14:30.922Z,20.72
2018-11-03T03:15:30.905Z,20.71
2018-11-03T03:16:30.900Z,20.77
2018-11-03T03:17:30.860Z,20.77
2018-11-03T03:18:30.835Z,20.76
2018-11-03T03:19:30.818Z,20.76
2018-11-03T03:20:30.811Z,20.80
2018-11-03T03:21:30.764Z,20.72
2018-11-03T03:22:30.754Z,20.72
2018-11-03T03:23:30.735Z,20.76
2018-11-03T03:24:30.723Z,20.81
2018-11-03T03:25:30.694Z,20.80
2018-11-03T03:26:30.680Z,20.72
2018-11-03T03:27:30.650Z,20.65
2018-11-03T03:28:30.635Z,20.69
2018-11-03T03:29:30.679Z,20.76
2018-11-03T03:30:30.583Z,20.83
2018-11-03T03:31:30.568Z,20.72
2018-11-03T03:32:30.544Z,20.72
2018-11-03T03:33:30.532Z,20.71
2018-11-03T03:34:30.504Z,20.68
2018-11-03T03:35:30.485Z,20.68
2018-11-03T03:36:30.461Z,20.65
2018-11-03T03:37:30.447Z,20.69
2018-11-03T03:38:30.414Z,20.71
2018-11-03T03:39:30.400Z,20.81
2018-11-03T03:40:30.383Z,20.71
2018-11-03T03:41:30.355Z,20.72
2018-11-03T03:42:30.328Z,20.74
2018-11-03T03:43:30.321Z,20.68
2018-11-03T03:44:30.308Z,20.69
2018-11-03T03:45:30.273Z,20.72
2018-11-03T03:46:30.254Z,20.83
2018-11-03T03:47:30.230Z,20.83
2018-11-03T03:48:30.218Z,20.84
2018-11-03T03:49:30.195Z,20.69
2018-11-03T03:50:30.173Z,20.81
2018-11-03T03:51:30.151Z,20.81
2018-11-03T03:52:30.125Z,20.81
2018-11-03T03:53:30.121Z,20.83
2018-11-03T03:54:30.086Z,20.79
2018-11-03T03:55:30.065Z,20.79
2018-11-03T03:56:30.048Z,20.91
2018-11-03T03:57:30.035Z,20.98
2018-11-03T03:58:30.015Z,21.01
2018-11-03T03:59:29.992Z,20.99
2018-11-03T04:00:29.971Z,20.96
2018-11-03T04:01:29.952Z,21.05
2018-11-03T04:02:29.927Z,21.11
2018-11-03T04:03:29.903Z,20.99
2018-11-03T04:04:29.894Z,21.11
2018-11-03T04:05:29.872Z,21.02
2018-11-03T04:06:29.843Z,21.05
2018-11-03T04:07:29.849Z,21.11
2018-11-03T04:08:29.801Z,21.04
2018-11-03T04:09:29.783Z,20.93
2018-11-03T04:10:29.759Z,20.98
2018-11-03T04:11:29.749Z,21.01
2018-11-03T04:12:29.721Z,20.93
2018-11-03T04:13:29.700Z,20.95
2018-11-03T04:14:29.680Z,20.91
2018-11-03T04:15:29.657Z,20.86
2018-11-03T04:16:29.638Z,20.86
2018-11-03T04:17:29.617Z,20.87
2018-11-03T04:18:29.599Z,20.74
2018-11-03T04:19:29.580Z,20.87
2018-11-03T04:20:29.561Z,20.87
2018-11-03T04:21:29.527Z,20.84
2018-11-03T04:22:29.520Z,20.86
2018-11-03T04:23:29.501Z,20.83
2018-11-03T04:24:29.469Z,20.81
2018-11-03T04:25:29.475Z,20.71
2018-11-03T04:26:29.421Z,20.89
2018-11-03T04:27:29.412Z,20.86
2018-11-03T04:28:29.395Z,20.84
2018-11-03T04:29:29.362Z,20.80
2018-11-03T04:30:29.392Z,20.81
2018-11-03T04:31:29.325Z,20.83
2018-11-03T04:32:29.307Z,20.77
2018-11-03T04:33:29.281Z,20.86
2018-11-03T04:34:29.263Z,20.91
2018-11-03T04:35:29.241Z,20.93
2018-11-03T04:36:29.220Z,20.72
2018-11-03T04:37:29.196Z,20.81
2018-11-03T04:38:29.182Z,20.84
2018-11-03T04:39:29.162Z,20.91
2018-11-03T04:40:29.165Z,20.81
2018-11-03T04:41:29.101Z,20.96
2018-11-03T04:42:29.087Z,20.90
2018-11-03T04:43:29.069Z,20.86
2018-11-03T04:44:29.078Z,20.79
2018-11-03T04:45:29.124Z,20.81
2018-11-03T04:46:29.013Z,20.81
2018-11-03T04:47:28.991Z,20.74
2018-11-03T04:48:28.967Z,20.77
2018-11-03T04:49:28.963Z,20.86
2018-11-03T04:50:28.924Z,20.84
2018-11-03T04:51:28.903Z,20.83
2018-11-03T04:52:28.918Z,20.93
2018-11-03T04:53:28.891Z,20.90
2018-11-03T04:54:28.848Z,20.84
2018-11-03T04:55:28.826Z,20.87
2018-11-03T04:56:28.801Z,20.95
2018-11-03T04:57:28.785Z,20.93
2018-11-03T04:58:28.753Z,20.83
2018-11-03T04:59:28.726Z,20.84
2018-11-03T05:00:28.706Z,20.89
2018-11-03T05:01:28.691Z,20.77
2018-11-03T05:02:28.676Z,20.84
2018-11-03T05:03:28.651Z,20.69
2018-11-03T05:04:28.624Z,20.69
2018-11-03T05:05:28.608Z,20.66
2018-11-03T05:06:28.580Z,20.72
2018-11-03T05:07:28.558Z,20.69
2018-11-03T05:08:28.541Z,20.68
2018-11-03T05:09:28.528Z,20.76
2018-11-03T05:10:28.571Z,20.69
2018-11-03T05:11:28.483Z,20.69
2018-11-03T05:12:28.487Z,20.74
2018-11-03T05:13:28.443Z,20.69
2018-11-03T05:14:28.416Z,20.83
2018-11-03T05:15:28.576Z,20.81
2018-11-03T05:16:28.558Z,20.74
2018-11-03T05:17:28.473Z,20.69
2018-11-03T05:18:28.532Z,20.80
2018-11-03T05:19:28.349Z,20.81
2018-11-03T05:20:28.325Z,20.66
2018-11-03T05:21:28.435Z,20.79
2018-11-03T05:22:28.250Z,20.81
2018-11-03T05:23:28.227Z,20.68
2018-11-03T05:24:28.200Z,20.69
2018-11-03T05:25:28.178Z,20.76
2018-11-03T05:26:28.209Z,20.68
2018-11-03T05:27:28.137Z,20.72
2018-11-03T05:28:28.120Z,20.72
2018-11-03T05:29:28.093Z,20.79
2018-11-03T05:30:28.080Z,20.71
2018-11-03T05:31:28.055Z,20.66
2018-11-03T05:32:28.036Z,20.79
2018-11-03T05:33:28.006Z,20.79
2018-11-03T05:34:27.983Z,20.81
2018-11-03T05:35:27.977Z,20.90
2018-11-03T05:36:27.960Z,20.79
2018-11-03T05:37:27.929Z,20.86
2018-11-03T05:38:27.910Z,20.81
2018-11-03T05:39:27.893Z,20.81
2018-11-03T05:40:27.931Z,20.76
2018-11-03T05:41:27.850Z,20.72
2018-11-03T05:42:27.826Z,20.71
2018-11-03T05:43:27.801Z,20.77
2018-11-03T05:44:27.773Z,20.74
2018-11-03T05:45:27.755Z,20.69
2018-11-03T05:46:27.851Z,20.81
2018-11-03T05:47:27.724Z,20.83
2018-11-03T05:48:27.702Z,20.77
2018-11-03T05:49:27.671Z,20.86
2018-11-03T05:50:27.689Z,20.81
2018-11-03T05:51:27.673Z,20.91
2018-11-03T05:52:27.611Z,20.86
2018-11-03T05:53:27.627Z,20.80
2018-11-03T05:54:27.569Z,20.83
2018-11-03T05:55:27.546Z,20.76
2018-11-03T05:56:27.546Z,20.81
2018-11-03T05:57:27.494Z,20.77
2018-11-03T05:58:27.478Z,20.83
2018-11-03T05:59:27.457Z,20.79
2018-11-03T06:00:27.435Z,20.87
2018-11-03T06:01:27.418Z,20.87
2018-11-03T06:02:27.400Z,20.81
2018-11-03T06:03:27.377Z,20.77
2018-11-03T06:04:27.353Z,20.87
2018-11-03T06:05:27.333Z,20.81
2018-11-03T06:06:27.317Z,20.84
2018-11-03T06:07:27.284Z,20.84
2018-11-03T06:08:27.269Z,20.87
2018-11-03T06:09:27.243Z,20.87
2018-11-03T06:10:27.220Z,20.83
2018-11-03T06:11:27.210Z,20.71
2018-11-03T06:12:27.237Z,20.84
2018-11-03T06:13:27.160Z,20.83
2018-11-03T06:14:27.145Z,20.74
2018-11-03T06:15:27.253Z,20.77
2018-11-03T06:16:27.108Z,20.68
2018-11-03T06:17:27.084Z,20.71
2018-11-03T06:18:27.062Z,20.66
2018-11-03T06:19:27.034Z,20.68
2018-11-03T06:20:27.004Z,20.83
2018-11-03T06:21:26.993Z,20.74
2018-11-03T06:22:27.003Z,20.71
2018-11-03T06:23:26.966Z,20.68
2018-11-03T06:24:26.926Z,20.66
2018-11-03T06:25:26.907Z,20.65
2018-11-03T06:26:26.884Z,20.68
2018-11-03T06:27:26.857Z,20.65
2018-11-03T06:28:26.848Z,20.65
2018-11-03T06:29:26.823Z,20.61
2018-11-03T06:30:26.795Z,20.62
2018-11-03T06:31:26.774Z,20.62
2018-11-03T06:32:26.773Z,20.54
2018-11-03T06:33:26.741Z,20.51
2018-11-03T06:34:26.713Z,20.51
2018-11-03T06:35:26.776Z,20.50
2018-11-03T06:36:26.668Z,20.51
2018-11-03T06:37:26.647Z,20.53
2018-11-03T06:38:26.640Z,20.53
2018-11-03T06:39:26.613Z,20.49
2018-11-03T06:40:26.593Z,20.46
2018-11-03T06:41:26.570Z,20.50
2018-11-03T06:42:26.559Z,20.46
2018-11-03T06:43:26.547Z,20.39
2018-11-03T06:44:26.502Z,20.41
2018-11-03T06:45:26.489Z,20.43
2018-11-03T06:46:26.508Z,20.42
2018-11-03T06:47:26.522Z,20.42
2018-11-03T06:48:26.424Z,20.39
2018-11-03T06:49:26.392Z,20.38
2018-11-03T06:50:26.368Z,20.47
2018-11-03T06:51:26.345Z,20.38
2018-11-03T06:52:26.335Z,20.39
2018-11-03T06:53:26.306Z,20.35
2018-11-03T06:54:26.285Z,20.39
2018-11-03T06:55:26.286Z,20.39
2018-11-03T06:56:26.248Z,20.35
2018-11-03T06:57:26.222Z,20.27
2018-11-03T06:58:26.202Z,20.27
2018-11-03T06:59:26.181Z,20.28
2018-11-03T07:00:26.174Z,20.27
2018-11-03T07:01:26.146Z,20.30
2018-11-03T07:02:26.113Z,20.23
2018-11-03T07:03:26.099Z,20.27
2018-11-03T07:04:26.063Z,20.23
2018-11-03T07:05:26.049Z,20.25
2018-11-03T07:06:26.026Z,20.18
2018-11-03T07:07:26.004Z,20.23
2018-11-03T07:08:26.018Z,20.23
2018-11-03T07:09:25.972Z,20.31
2018-11-03T07:10:26.014Z,20.30
2018-11-03T07:11:25.975Z,20.25
2018-11-03T07:12:26.179Z,20.21
2018-11-03T07:13:26.030Z,20.20
2018-11-03T07:14:25.863Z,20.15
2018-11-03T07:15:25.826Z,20.18
2018-11-03T07:16:25.808Z,20.10
2018-11-03T07:17:25.946Z,20.16
2018-11-03T07:18:25.791Z,20.16
2018-11-03T07:19:25.746Z,20.13
2018-11-03T07:20:25.732Z,20.15
2018-11-03T07:21:25.748Z,20.10
2018-11-03T07:22:25.687Z,20.08
2018-11-03T07:23:25.691Z,20.06
2018-11-03T07:24:25.647Z,20.15
2018-11-03T07:25:25.620Z,20.15
2018-11-03T07:26:25.596Z,20.13
2018-11-03T07:27:25.575Z,20.16
2018-11-03T07:28:25.552Z,20.10
2018-11-03T07:29:25.566Z,20.18
2018-11-03T07:30:25.514Z,20.12
2018-11-03T07:31:25.499Z,20.12
2018-11-03T07:32:25.483Z,20.13
2018-11-03T07:33:25.447Z,20.13
2018-11-03T07:34:25.422Z,20.10
2018-11-03T07:35:25.409Z,20.16
2018-11-03T07:36:25.375Z,20.10
2018-11-03T07:37:25.433Z,20.09
2018-11-03T07:38:25.340Z,20.02
2018-11-03T07:39:25.343Z,20.00
2018-11-03T07:40:25.296Z,20.03
2018-11-03T07:41:25.381Z,20.00
2018-11-03T07:42:25.292Z,20.00
2018-11-03T07:43:25.236Z,20.02
2018-11-03T07:44:25.215Z,20.02
2018-11-03T07:45:25.196Z,20.02
2018-11-03T07:46:25.181Z,20.03
2018-11-03T07:47:25.153Z,20.00
2018-11-03T07:48:25.185Z,20.02
2018-11-03T07:49:25.209Z,20.00
2018-11-03T07:50:25.089Z,20.00
2018-11-03T07:51:25.068Z,19.95
2018-11-03T07:52:25.045Z,19.98
2018-11-03T07:53:25.027Z,20.02
2018-11-03T07:54:25.083Z,19.98
2018-11-03T07:55:24.970Z,20.03
2018-11-03T07:56:24.959Z,19.94
2018-11-03T07:57:24.960Z,20.06
2018-11-03T07:58:24.923Z,19.97
2018-11-03T07:59:24.896Z,20.05
2018-11-03T08:00:24.911Z,20.02
2018-11-03T08:01:24.857Z,19.98
2018-11-03T08:02:24.826Z,20.00
2018-11-03T08:03:24.812Z,19.98
2018-11-03T08:04:24.787Z,20.02
2018-11-03T08:05:24.773Z,20.00
2018-11-03T08:06:24.760Z,20.00
2018-11-03T08:07:24.721Z,20.00
2018-11-03T08:08:24.705Z,20.00
2018-11-03T08:09:24.677Z,20.12
2018-11-03T08:10:24.663Z,19.98
2018-11-03T08:11:24.643Z,19.98
2018-11-03T08:12:24.626Z,20.02
2018-11-03T08:13:24.602Z,20.18
2018-11-03T08:14:24.572Z,20.09
2018-11-03T08:15:24.611Z,20.13
2018-11-03T08:16:24.543Z,20.06
2018-11-03T08:17:24.516Z,20.10
2018-11-03T08:18:24.501Z,20.12
2018-11-03T08:19:24.468Z,20.12
2018-11-03T08:20:24.444Z,20.10
2018-11-03T08:21:24.429Z,20.10
2018-11-03T08:22:24.404Z,20.15
2018-11-03T08:23:24.375Z,20.10
2018-11-03T08:24:24.393Z,20.13
2018-11-03T08:25:24.343Z,20.10
2018-11-03T08:26:24.324Z,20.10
2018-11-03T08:27:24.296Z,20.06
2018-11-03T08:28:24.285Z,20.15
2018-11-03T08:29:24.258Z,20.15
2018-11-03T08:30:24.242Z,20.16
2018-11-03T08:31:24.257Z,20.13
2018-11-03T08:32:24.189Z,20.13
2018-11-03T08:33:24.169Z,20.13
2018-11-03T08:34:24.148Z,20.20
2018-11-03T08:35:24.131Z,20.13
2018-11-03T08:36:24.100Z,20.23
2018-11-03T08:37:24.088Z,20.16
2018-11-03T08:38:24.063Z,20.25
2018-11-03T08:39:24.049Z,20.23
2018-11-03T08:40:24.029Z,20.25
2018-11-03T08:41:24.017Z,20.21
2018-11-03T08:42:23.974Z,20.24
2018-11-03T08:43:23.947Z,20.24
2018-11-03T08:44:23.940Z,20.23
2018-11-03T08:45:23.908Z,20.27
2018-11-03T08:46:23.891Z,20.27
2018-11-03T08:47:23.873Z,20.25
2018-11-03T08:48:23.930Z,20.21
2018-11-03T08:49:23.824Z,20.25
2018-11-03T08:50:23.814Z,20.33
2018-11-03T08:51:23.784Z,20.30
2018-11-03T08:52:23.762Z,20.27
2018-11-03T08:53:23.749Z,20.34
2018-11-03T08:54:23.726Z,20.35
2018-11-03T08:55:23.707Z,20.46
2018-11-03T08:56:23.706Z,20.41
2018-11-03T08:57:23.652Z,20.51
2018-11-03T08:58:23.627Z,20.58
2018-11-03T08:59:23.631Z,20.53
2018-11-03T09:00:23.813Z,20.58
2018-11-03T09:01:23.562Z,20.51
2018-11-03T09:02:23.552Z,20.69
2018-11-03T09:03:23.543Z,20.69
2018-11-03T09:04:23.515Z,20.68
2018-11-03T09:05:23.521Z,20.69
2018-11-03T09:06:23.463Z,20.74
2018-11-03T09:07:23.443Z,20.93
2018-11-03T09:08:23.426Z,21.21
2018-11-03T09:09:23.405Z,21.59
2018-11-03T09:10:23.380Z,21.78
2018-11-03T09:11:23.367Z,21.95
2018-11-03T09:12:23.341Z,22.01
2018-11-03T09:13:23.328Z,21.69
2018-11-03T09:14:23.330Z,21.42
2018-11-03T09:15:23.322Z,21.27
2018-11-03T09:16:23.261Z,21.13
2018-11-03T09:17:23.240Z,21.11
2018-11-03T09:18:23.233Z,21.09
2018-11-03T09:19:23.199Z,21.08
2018-11-03T09:20:23.187Z,21.04
2018-11-03T09:21:23.148Z,21.04
2018-11-03T09:22:23.188Z,21.16
2018-11-03T09:23:23.109Z,21.36
2018-11-03T09:24:23.094Z,21.50
2018-11-03T09:25:23.068Z,21.75
2018-11-03T09:26:23.056Z,22.10
2018-11-03T09:27:23.029Z,21.85
2018-11-03T09:28:23.017Z,21.75
2018-11-03T09:29:23.006Z,21.61
2018-11-03T09:30:22.984Z,21.54
2018-11-03T09:31:22.944Z,21.56
2018-11-03T09:32:22.933Z,21.56
2018-11-03T09:33:22.913Z,21.42
2018-11-03T09:34:22.913Z,21.45
2018-11-03T09:35:22.867Z,21.41
2018-11-03T09:36:22.853Z,21.45
2018-11-03T09:37:22.890Z,21.44
2018-11-03T09:38:22.861Z,21.39
2018-11-03T09:39:22.942Z,21.45
2018-11-03T09:40:22.769Z,21.44
2018-11-03T09:41:22.749Z,21.44
2018-11-03T09:42:22.735Z,21.56
2018-11-03T09:43:22.850Z,21.59
2018-11-03T09:44:22.683Z,21.74
2018-11-03T09:45:22.674Z,21.81
2018-11-03T09:46:22.649Z,21.95
2018-11-03T09:47:22.637Z,22.06
2018-11-03T09:48:22.610Z,22.86
2018-11-03T09:49:22.580Z,22.80
2018-11-03T09:50:22.654Z,23.27
2018-11-03T09:51:22.560Z,23.39
2018-11-03T09:52:22.529Z,23.49
2018-11-03T09:53:22.516Z,23.22
2018-11-03T09:54:22.488Z,23.05
2018-11-03T09:55:22.479Z,22.93
2018-11-03T09:56:22.477Z,22.65
2018-11-03T09:57:22.430Z,22.57
2018-11-03T09:58:22.412Z,22.43
2018-11-03T09:59:22.403Z,22.47
2018-11-03T10:00:22.381Z,22.50
2018-11-03T10:01:22.387Z,22.56
2018-11-03T10:02:22.333Z,22.54
2018-11-03T10:03:22.316Z,22.84
2018-11-03T10:04:22.291Z,22.96
2018-11-03T10:05:22.281Z,23.20
2018-11-03T10:06:22.311Z,23.08
2018-11-03T10:07:22.244Z,23.11
2018-11-03T10:08:22.218Z,23.08
2018-11-03T10:09:22.204Z,22.83
2018-11-03T10:10:22.189Z,22.74
2018-11-03T10:11:22.175Z,22.93
2018-11-03T10:12:22.154Z,23.83
2018-11-03T10:13:22.135Z,24.32
2018-11-03T10:14:22.106Z,24.57
2018-11-03T10:15:22.090Z,24.82
2018-11-03T10:16:22.080Z,24.52
2018-11-03T10:17:22.050Z,24.19
2018-11-03T10:18:22.039Z,23.95
2018-11-03T10:19:22.026Z,23.95
2018-11-03T10:20:21.996Z,23.82
2018-11-03T10:21:21.978Z,23.92
2018-11-03T10:22:21.999Z,24.16
2018-11-03T10:23:21.950Z,24.34
2018-11-03T10:24:21.941Z,24.91
2018-11-03T10:25:21.909Z,25.13
2018-11-03T10:26:21.886Z,25.28
2018-11-03T10:27:21.884Z,25.44
2018-11-03T10:28:21.863Z,25.79
2018-11-03T10:29:21.843Z,25.91
2018-11-03T10:30:21.826Z,25.82
2018-11-03T10:31:21.813Z,25.98
2018-11-03T10:32:21.800Z,25.98
2018-11-03T10:33:21.787Z,26.17
2018-11-03T10:34:21.763Z,26.01
2018-11-03T10:35:21.747Z,25.62
2018-11-03T10:36:21.730Z,25.82
2018-11-03T10:37:21.716Z,26.09
2018-11-03T10:38:21.700Z,26.43
2018-11-03T10:39:21.691Z,26.73
2018-11-03T10:40:21.670Z,26.81
2018-11-03T10:41:21.653Z,26.69
2018-11-03T10:42:21.640Z,26.46
2018-11-03T10:43:21.629Z,26.31
2018-11-03T10:44:21.608Z,26.31
2018-11-03T10:45:21.595Z,26.65
2018-11-03T10:46:21.676Z,27.01
2018-11-03T10:47:21.568Z,27.57
2018-11-03T10:48:21.554Z,27.88
2018-11-03T10:49:21.537Z,27.59
2018-11-03T10:50:21.533Z,26.96
2018-11-03T10:51:21.516Z,26.17
2018-11-03T10:52:21.500Z,25.80
2018-11-03T10:53:21.520Z,25.61
2018-11-03T10:54:21.467Z,25.31
2018-11-03T10:55:21.454Z,25.44
2018-11-03T10:56:21.443Z,25.83
2018-11-03T10:57:21.423Z,26.01
2018-11-03T10:58:21.394Z,26.27
2018-11-03T10:59:21.396Z,26.25
2018-11-03T11:00:21.383Z,26.24
2018-11-03T11:01:21.363Z,26.17
2018-11-03T11:02:21.335Z,26.02
2018-11-03T11:03:21.343Z,25.93
2018-11-03T11:04:21.321Z,25.91
2018-11-03T11:05:21.288Z,26.40
2018-11-03T11:06:21.295Z,26.73
2018-11-03T11:07:21.267Z,26.65
2018-11-03T11:08:21.260Z,26.20
2018-11-03T11:09:21.246Z,26.09
2018-11-03T11:10:21.233Z,26.17
2018-11-03T11:11:21.222Z,26.43
2018-11-03T11:12:21.202Z,26.09
2018-11-03T11:13:21.190Z,25.91
2018-11-03T11:14:21.240Z,25.89
2018-11-03T11:15:21.160Z,26.27
2018-11-03T11:16:21.206Z,26.62
2018-11-03T11:17:21.131Z,26.61
2018-11-03T11:18:21.119Z,26.37
2018-11-03T11:19:21.104Z,26.20
2018-11-03T11:20:21.096Z,26.18
2018-11-03T11:21:21.081Z,26.25
2018-11-03T11:22:21.059Z,26.09
2018-11-03T11:23:21.158Z,25.98
2018-11-03T11:24:21.272Z,26.22
2018-11-03T11:25:21.240Z,26.54
2018-11-03T11:26:21.005Z,26.74
2018-11-03T11:27:20.977Z,26.91
2018-11-03T11:28:21.052Z,27.05
2018-11-03T11:29:20.961Z,26.89
2018-11-03T11:30:20.949Z,26.94
2018-11-03T11:31:20.989Z,26.98
2018-11-03T11:32:20.910Z,26.94
2018-11-03T11:33:20.912Z,26.79
2018-11-03T11:34:20.889Z,26.67
2018-11-03T11:35:20.877Z,26.49
2018-11-03T11:36:20.868Z,26.32
2018-11-03T11:37:20.873Z,26.31
2018-11-03T11:38:20.834Z,26.62
2018-11-03T11:39:20.822Z,26.68
2018-11-03T11:40:20.804Z,26.64
2018-11-03T11:41:20.798Z,26.54
2018-11-03T11:42:20.794Z,26.54
2018-11-03T11:43:20.911Z,26.46
2018-11-03T11:44:20.743Z,26.64
2018-11-03T11:45:20.825Z,26.76
2018-11-03T11:46:20.730Z,26.61
2018-11-03T11:47:20.703Z,26.50
2018-11-03T11:48:20.690Z,26.42
2018-11-03T11:49:20.690Z,26.35
2018-11-03T11:50:20.652Z,26.52
2018-11-03T11:51:20.651Z,26.74
2018-11-03T11:52:20.633Z,26.89
2018-11-03T11:53:20.607Z,26.98
2018-11-03T11:54:20.608Z,27.05
2018-11-03T11:55:20.594Z,27.11
2018-11-03T11:56:20.581Z,27.11
2018-11-03T11:57:20.570Z,27.09
2018-11-03T11:58:20.549Z,27.36
2018-11-03T11:59:20.537Z,27.36
2018-11-03T12:00:20.508Z,27.38
2018-11-03T12:01:20.505Z,27.35
2018-11-03T12:02:20.504Z,27.32
2018-11-03T12:03:20.467Z,27.35
2018-11-03T12:04:20.462Z,27.32
2018-11-03T12:05:20.451Z,27.50
2018-11-03T12:06:20.442Z,27.48
2018-11-03T12:07:20.425Z,27.43
2018-11-03T12:08:53.609Z,27.43
2018-11-03T12:09:20.383Z,27.47
2018-11-03T12:10:20.390Z,27.54
2018-11-03T12:11:20.380Z,27.47
2018-11-03T12:12:20.345Z,27.69
2018-11-03T12:13:20.343Z,27.91
2018-11-03T12:14:20.326Z,27.96
2018-11-03T12:15:20.320Z,27.85
2018-11-03T12:16:20.469Z,27.73
2018-11-03T12:17:20.281Z,27.70
2018-11-03T12:18:20.279Z,27.88
2018-11-03T12:19:20.265Z,27.98
2018-11-03T12:20:20.256Z,28.16
2018-11-03T12:21:20.244Z,28.48
2018-11-03T12:22:20.227Z,28.46
2018-11-03T12:23:20.210Z,28.38
2018-11-03T12:24:20.201Z,28.28
2018-11-03T12:25:20.213Z,28.22
2018-11-03T12:28:03.936Z,28.23
2018-11-03T12:29:03.930Z,28.16
2018-11-03T12:30:03.898Z,28.14
2018-11-03T12:31:03.901Z,28.01
2018-11-03T12:32:03.886Z,28.07
2018-11-03T12:33:03.873Z,28.10
2018-11-03T12:34:03.866Z,28.11
2018-11-03T12:35:03.853Z,27.92
2018-11-03T12:36:03.851Z,27.85
2018-11-03T12:37:03.827Z,27.94
2018-11-03T12:38:03.829Z,27.96
2018-11-03T12:39:03.814Z,28.04
2018-11-03T12:40:03.827Z,27.96
2018-11-03T12:41:03.795Z,28.01
2018-11-03T12:42:03.780Z,28.38
2018-11-03T12:43:03.760Z,28.44
2018-11-03T12:44:03.739Z,28.28
2018-11-03T12:45:03.739Z,28.32
2018-11-03T12:46:03.726Z,28.51
2018-11-03T12:47:03.713Z,28.70
2018-11-03T12:48:03.776Z,28.54
2018-11-03T12:49:03.693Z,28.26
2018-11-03T12:50:03.665Z,28.36
2018-11-03T12:51:03.658Z,28.19
2018-11-03T12:52:03.573Z,28.28
2018-11-03T12:53:03.575Z,28.48
2018-11-03T12:54:03.556Z,28.58